Time;durP1;ratioP1;P1;durP2;ratioP2;P2;SDS_P1;SDS_P2;PMS_P1;PMS_P2;Temp;Humidity;BMP_temperature;BMP_pressure;BME280_temperature;BME280_humidity;BME280_pressure;Samples;Min_cycle;Max_cycle;Signal;HPM_P1;HPM_P2
2022/01/20 00:00:33;;;;;;;55.63;49.00;;;;;;;-145.93;100.00;59239.47;4891105;29;20131;-83
2022/01/20 00:03:02;;;;;;;53.25;47.80;;;;;;;-145.93;100.00;59239.47;4872917;29;20020;-83
2022/01/20 00:27:09;;;;;;;62.63;48.33;;;;;;;-145.93;100.00;59239.47;4898740;29;20067;-81
2022/01/20 00:30:04;;;;;;;56.75;48.20;;;;;;;-145.93;100.00;59239.47;4885349;29;20032;-82
2022/01/20 00:32:35;;;;;;;56.03;48.22;;;;;;;-145.93;100.00;59239.47;4882428;29;20516;-82
2022/01/20 00:37:30;;;;;;;61.43;48.07;;;;;;;-145.93;100.00;59239.47;4890034;29;20047;-81
2022/01/20 00:39:59;;;;;;;58.75;47.75;;;;;;;-145.93;100.00;59239.47;4874572;29;20028;-83
2022/01/20 00:42:28;;;;;;;60.80;49.47;;;;;;;-145.93;100.00;59239.47;4884478;29;20572;-83
2022/01/20 00:44:53;;;;;;;52.10;46.88;;;;;;;-145.93;100.00;59239.47;4880735;29;20036;-82
2022/01/20 00:47:19;;;;;;;68.03;49.33;;;;;;;-145.93;100.00;59239.47;4883520;29;21148;-83
2022/01/20 00:49:45;;;;;;;54.85;47.95;;;;;;;-145.93;100.00;59239.47;4885672;29;20025;-81
2022/01/20 00:52:11;;;;;;;55.80;48.70;;;;;;;-145.93;100.00;59239.47;4868141;29;20028;-83
2022/01/20 00:54:37;;;;;;;60.08;50.38;;;;;;;-145.93;100.00;59239.47;4880516;29;20489;-83
2022/01/20 00:57:04;;;;;;;54.17;48.17;;;;;;;-145.93;100.00;59239.47;4873833;29;20044;-82
2022/01/20 00:59:31;;;;;;;68.07;51.38;;;;;;;-145.93;100.00;59239.47;4872093;29;20279;-84
2022/01/20 01:02:04;;;;;;;52.85;47.58;;;;;;;-145.93;100.00;59239.47;4872888;29;20029;-83
2022/01/20 01:04:30;;;;;;;55.70;49.05;;;;;;;-145.93;100.00;59239.47;4870842;29;20028;-83
2022/01/20 01:07:15;;;;;;;52.47;47.30;;;;;;;-145.93;100.00;59239.47;4890469;29;20023;-84
2022/01/20 01:09:42;;;;;;;53.88;48.20;;;;;;;-145.93;100.00;59239.47;4875374;29;20036;-83
2022/01/20 01:12:13;;;;;;;52.25;47.08;;;;;;;-145.93;100.00;59239.47;4874030;29;20035;-83
2022/01/20 01:14:43;;;;;;;64.80;48.90;;;;;;;-145.93;100.00;59239.47;4862408;29;20017;-82
2022/01/20 01:24:45;;;;;;;53.73;48.43;;;;;;;-145.93;100.00;59239.47;4886855;29;20060;-82
2022/01/20 01:27:12;;;;;;;52.83;47.45;;;;;;;-145.93;100.00;59239.47;4873111;29;20028;-83
2022/01/20 01:30:05;;;;;;;52.03;46.78;;;;;;;-145.93;100.00;59239.47;4888033;29;20136;-82
2022/01/20 01:35:09;;;;;;;50.60;45.97;;;;;;;-145.93;100.00;59239.47;4884986;29;20098;-81
2022/01/20 01:40:21;;;;;;;50.95;46.22;;;;;;;-145.93;100.00;59239.47;4862082;29;20044;-82
2022/01/20 01:42:49;;;;;;;52.92;47.28;;;;;;;-145.93;100.00;59239.47;4879447;29;20037;-84
2022/01/20 01:45:25;;;;;;;50.83;46.03;;;;;;;-145.93;100.00;59239.47;4884355;29;20021;-82
2022/01/20 01:47:50;;;;;;;51.40;46.28;;;;;;;-145.93;100.00;59239.47;4887386;29;20025;-82
2022/01/20 01:50:15;;;;;;;51.60;46.50;;;;;;;-145.93;100.00;59239.47;4892083;29;20080;-83
2022/01/20 01:52:42;;;;;;;52.70;47.57;;;;;;;-145.93;100.00;59239.47;4887527;29;20035;-80
2022/01/20 01:55:08;;;;;;;51.92;46.88;;;;;;;-145.93;100.00;59239.47;4898294;29;20092;-83
2022/01/20 01:57:33;;;;;;;51.40;46.70;;;;;;;-145.93;100.00;59239.47;4884779;29;20057;-82
2022/01/20 01:59:58;;;;;;;51.23;46.50;;;;;;;-145.93;100.00;59239.47;4889163;29;20029;-82
2022/01/20 02:02:24;;;;;;;53.60;47.87;;;;;;;-145.93;100.00;59239.47;4895089;29;20087;-83
2022/01/20 02:04:50;;;;;;;50.97;46.13;;;;;;;-145.93;100.00;59239.47;4896081;29;20029;-83
2022/01/20 02:18:12;;;;;;;50.90;45.97;;;;;;;-145.93;100.00;59239.47;4889140;29;20076;-82
2022/01/20 02:20:38;;;;;;;53.28;47.88;;;;;;;-145.93;100.00;59239.47;4900372;29;20029;-83
2022/01/20 02:23:04;;;;;;;52.83;47.22;;;;;;;-145.93;100.00;59239.47;4892191;29;20043;-82
2022/01/20 02:25:32;;;;;;;51.90;46.78;;;;;;;-145.93;100.00;59239.47;4906206;29;20036;-82
2022/01/20 02:28:00;;;;;;;51.78;46.65;;;;;;;-145.93;100.00;59239.47;4887961;29;20033;-80
2022/01/20 02:30:29;;;;;;;50.83;45.88;;;;;;;-145.93;100.00;59239.47;4888197;29;20046;-82
2022/01/20 02:33:04;;;;;;;51.38;46.25;;;;;;;-145.93;100.00;59239.47;4886115;29;20009;-83
2022/01/20 02:35:37;;;;;;;56.17;47.10;;;;;;;-145.93;100.00;59239.47;4890175;29;20032;-82
2022/01/20 02:38:12;;;;;;;51.08;46.33;;;;;;;-145.93;100.00;59239.47;4874976;29;20127;-82
2022/01/20 02:45:53;;;;;;;52.35;47.17;;;;;;;-145.93;100.00;59239.47;4896612;29;20543;-82
2022/01/20 02:48:18;;;;;;;51.22;46.10;;;;;;;-145.93;100.00;59239.47;4881565;29;20029;-84
2022/01/20 02:50:44;;;;;;;50.83;46.40;;;;;;;-145.93;100.00;59239.47;4859178;29;20047;-84
2022/01/20 02:53:09;;;;;;;50.93;46.07;;;;;;;-145.93;100.00;59239.47;4861884;29;20024;-84
2022/01/20 02:55:34;;;;;;;51.77;46.57;;;;;;;-145.93;100.00;59239.47;4876604;29;20048;-85
2022/01/20 02:58:00;;;;;;;61.37;48.70;;;;;;;-145.93;100.00;59239.47;4878223;29;20028;-83
2022/01/20 03:00:28;;;;;;;55.53;46.73;;;;;;;-145.93;100.00;59239.47;4879146;29;20496;-82
2022/01/20 03:02:55;;;;;;;51.35;46.17;;;;;;;-145.93;100.00;59239.47;4873945;29;20028;-81
2022/01/20 03:05:21;;;;;;;54.95;47.85;;;;;;;-145.93;100.00;59239.47;4901693;29;20024;-81
2022/01/20 03:07:47;;;;;;;51.38;46.28;;;;;;;-145.93;100.00;59239.47;4890822;29;20057;-82
2022/01/20 03:10:12;;;;;;;53.10;47.20;;;;;;;-145.93;100.00;59239.47;4890433;29;20034;-82
2022/01/20 03:12:38;;;;;;;52.60;47.43;;;;;;;-145.93;100.00;59239.47;4904382;29;20108;-81
2022/01/20 03:15:04;;;;;;;63.37;48.23;;;;;;;-145.93;100.00;59239.47;4887650;29;20035;-83
2022/01/20 03:17:30;;;;;;;51.85;46.45;;;;;;;-145.93;100.00;59239.47;4893545;29;20558;-82
2022/01/20 03:19:56;;;;;;;50.78;45.55;;;;;;;-145.93;100.00;59239.47;4879699;29;20036;-82
2022/01/20 03:22:21;;;;;;;52.37;45.93;;;;;;;-145.93;100.00;59239.47;4877110;29;20084;-83
2022/01/20 03:24:49;;;;;;;52.23;46.70;;;;;;;-145.93;100.00;59239.47;4882720;29;20028;-81
2022/01/20 03:27:15;;;;;;;58.03;47.58;;;;;;;-145.93;100.00;59239.47;4876812;29;20035;-81
2022/01/20 03:29:40;;;;;;;52.50;47.00;;;;;;;-145.93;100.00;59239.47;4892677;29;20111;-81
2022/01/20 03:32:06;;;;;;;52.47;47.00;;;;;;;-145.93;100.00;59239.47;4875114;29;20024;-83
2022/01/20 03:34:31;;;;;;;51.47;46.20;;;;;;;-145.93;100.00;59239.47;4871882;29;20033;-82
2022/01/20 03:36:57;;;;;;;50.77;45.67;;;;;;;-145.93;100.00;59239.47;4891243;29;20316;-82
2022/01/20 03:39:22;;;;;;;51.80;46.33;;;;;;;-145.93;100.00;59239.47;4890426;29;20412;-82
2022/01/20 03:41:47;;;;;;;51.53;46.10;;;;;;;-145.93;100.00;59239.47;4878649;29;20043;-82
2022/01/20 03:44:13;;;;;;;53.80;47.13;;;;;;;-145.93;100.00;59239.47;4877115;29;20036;-82
2022/01/20 03:46:41;;;;;;;50.77;45.83;;;;;;;-145.93;100.00;59239.47;4890263;29;20171;-83
2022/01/20 03:49:10;;;;;;;50.28;45.50;;;;;;;-145.93;100.00;59239.47;4881043;29;20027;-83
2022/01/20 03:51:36;;;;;;;51.20;45.92;;;;;;;-145.93;100.00;59239.47;4875288;29;20084;-83
2022/01/20 03:54:04;;;;;;;52.33;46.85;;;;;;;-145.93;100.00;59239.47;4878040;29;20077;-82
2022/01/20 03:56:31;;;;;;;51.47;46.50;;;;;;;-145.93;100.00;59239.47;4880084;29;20465;-83
2022/01/20 03:58:56;;;;;;;;;;;;;;;-145.93;100.00;59239.47;4877519;29;20125;-83
2022/01/20 04:01:22;;;;;;;51.20;46.55;;;;;;;-145.93;100.00;59239.47;4896018;29;19939;-83
2022/01/20 04:03:47;;;;;;;51.83;46.50;;;;;;;-145.93;100.00;59239.47;4893877;29;20063;-81
2022/01/20 04:06:13;;;;;;;50.90;45.57;;;;;;;-145.93;100.00;59239.47;4885321;29;20029;-82
2022/01/20 04:08:43;;;;;;;50.83;46.03;;;;;;;-145.93;100.00;59239.47;4885126;29;20064;-82
2022/01/20 04:11:18;;;;;;;50.80;45.80;;;;;;;-145.93;100.00;59239.47;4905991;29;20029;-81
2022/01/20 04:13:43;;;;;;;52.03;46.50;;;;;;;-145.93;100.00;59239.47;4895678;29;20147;-83
2022/01/20 04:16:17;;;;;;;50.60;45.33;;;;;;;-145.93;100.00;59239.47;4881559;29;20127;-82
2022/01/20 04:18:52;;;;;;;50.78;45.78;;;;;;;-145.93;100.00;59239.47;4896241;29;20041;-84
2022/01/20 04:21:19;;;;;;;50.85;45.65;;;;;;;-145.93;100.00;59239.47;4895828;29;20028;-83
2022/01/20 04:23:45;;;;;;;55.17;47.67;;;;;;;-145.93;100.00;59239.47;4881512;29;20032;-82
2022/01/20 04:26:10;;;;;;;55.57;46.50;;;;;;;-145.93;100.00;59239.47;4881217;29;20034;-82
2022/01/20 04:28:35;;;;;;;52.67;46.07;;;;;;;-145.93;100.00;59239.47;4897426;29;20028;-83
2022/01/20 04:31:01;;;;;;;50.87;46.20;;;;;;;-145.93;100.00;59239.47;4879545;29;20032;-82
2022/01/20 04:33:26;;;;;;;52.53;47.13;;;;;;;-145.93;100.00;59239.47;4878493;29;20032;-81
2022/01/20 04:35:51;;;;;;;50.23;45.30;;;;;;;-145.93;100.00;59239.47;4899614;23;20055;-82
2022/01/20 04:38:17;;;;;;;50.20;45.57;;;;;;;-145.93;100.00;59239.47;4907348;29;20031;-82
2022/01/20 04:40:43;;;;;;;50.00;45.30;;;;;;;-145.93;100.00;59239.47;4905195;29;20527;-82
2022/01/20 04:43:08;;;;;;;51.55;46.65;;;;;;;-145.93;100.00;59239.47;4918704;29;20056;-80
2022/01/20 04:45:40;;;;;;;51.53;46.30;;;;;;;-145.93;100.00;59239.47;4912834;29;20105;-81
2022/01/20 04:58:49;;;;;;;51.25;46.20;;;;;;;-145.93;100.00;59239.47;4919562;29;20043;-82
2022/01/20 05:01:14;;;;;;;53.87;46.60;;;;;;;-145.93;100.00;59239.47;4916115;29;20037;-80
2022/01/20 05:03:41;;;;;;;51.57;46.27;;;;;;;-145.93;100.00;59239.47;4925764;29;20035;-79
2022/01/20 05:06:06;;;;;;;50.92;46.13;;;;;;;-145.93;100.00;59239.47;4909775;29;20047;-82
2022/01/20 05:08:32;;;;;;;51.00;46.10;;;;;;;-145.93;100.00;59239.47;4896116;29;20039;-83
2022/01/20 05:11:01;;;;;;;50.33;45.20;;;;;;;-145.93;100.00;59239.47;4918825;29;20054;-82
2022/01/20 05:13:33;;;;;;;52.90;47.50;;;;;;;-145.93;100.00;59239.47;4899681;29;20038;-83
2022/01/20 05:15:59;;;;;;;52.00;47.00;;;;;;;-145.93;100.00;59239.47;4917749;29;20027;-81
2022/01/20 05:18:24;;;;;;;51.67;46.28;;;;;;;-145.93;100.00;59239.47;4897416;29;20054;-81
2022/01/20 05:20:51;;;;;;;50.57;45.63;;;;;;;-145.93;100.00;59239.47;4915522;29;20043;-82
2022/01/20 05:23:16;;;;;;;50.42;45.63;;;;;;;-145.93;100.00;59239.47;4901700;29;20034;-82
2022/01/20 05:25:42;;;;;;;52.23;46.77;;;;;;;-145.93;100.00;59239.47;4890314;29;20368;-82
2022/01/20 05:28:07;;;;;;;49.93;45.43;;;;;;;-145.93;100.00;59239.47;4895987;29;20024;-82
2022/01/20 05:30:33;;;;;;;51.83;46.50;;;;;;;-145.93;100.00;59239.47;4907125;29;20126;-82
2022/01/20 05:33:00;;;;;;;55.07;47.53;;;;;;;-145.93;100.00;59239.47;4905968;29;20039;-81
2022/01/20 05:35:25;;;;;;;55.72;47.50;;;;;;;-145.93;100.00;59239.47;4906543;29;20048;-83
2022/01/20 05:37:51;;;;;;;65.90;53.58;;;;;;;-145.93;100.00;59239.47;4941113;29;20012;-80
2022/01/20 05:40:16;;;;;;;54.80;49.27;;;;;;;-145.93;100.00;59239.47;4925345;29;20046;-81
2022/01/20 05:42:41;;;;;;;54.10;48.17;;;;;;;-145.93;100.00;59239.47;4924960;28;20067;-81
2022/01/20 05:45:07;;;;;;;60.03;48.63;;;;;;;-145.93;100.00;59239.47;4914785;29;20032;-82
2022/01/20 05:47:36;;;;;;;52.88;47.15;;;;;;;-145.93;100.00;59239.47;4899730;29;20035;-81
2022/01/20 05:50:02;;;;;;;51.63;46.10;;;;;;;-145.93;100.00;59239.47;4922411;29;20036;-81
2022/01/20 05:52:28;;;;;;;52.75;47.28;;;;;;;-145.93;100.00;59239.47;4921596;29;20099;-81
2022/01/20 05:54:53;;;;;;;51.17;46.17;;;;;;;-145.93;100.00;59239.47;4924328;29;20047;-82
2022/01/20 05:57:18;;;;;;;51.70;46.43;;;;;;;-145.93;100.00;59239.47;4912484;29;20484;-82
2022/01/20 05:59:44;;;;;;;56.90;47.03;;;;;;;-145.93;100.00;59239.47;4892487;29;20023;-81
2022/01/20 06:02:13;;;;;;;53.13;47.37;;;;;;;-145.93;100.00;59239.47;4903934;29;20043;-82
2022/01/20 06:04:39;;;;;;;54.58;47.13;;;;;;;-145.93;100.00;59239.47;4903258;29;20024;-83
2022/01/20 06:07:05;;;;;;;55.72;48.10;;;;;;;-145.93;100.00;59239.47;4903809;29;20032;-83
2022/01/20 06:09:30;;;;;;;51.50;46.43;;;;;;;-145.93;100.00;59239.47;4917037;29;20059;-81
2022/01/20 06:11:55;;;;;;;60.87;47.13;;;;;;;-145.93;100.00;59239.47;4905264;29;20091;-80
2022/01/20 06:14:23;;;;;;;52.77;47.03;;;;;;;-145.93;100.00;59239.47;4915679;29;20021;-82
2022/01/20 06:16:48;;;;;;;53.75;46.50;;;;;;;-145.93;100.00;59239.47;4917158;29;20035;-82
2022/01/20 06:19:14;;;;;;;61.47;48.80;;;;;;;-145.93;100.00;59239.47;4930808;29;20028;-82
2022/01/20 06:21:41;;;;;;;54.50;48.73;;;;;;;-145.93;100.00;59239.47;4891223;29;20119;-82
2022/01/20 06:24:06;;;;;;;51.88;46.70;;;;;;;-145.93;100.00;59239.47;4906428;29;20028;-82
2022/01/20 06:26:32;;;;;;;52.23;46.70;;;;;;;-145.93;100.00;59239.47;4924533;29;20034;-83
2022/01/20 06:28:57;;;;;;;52.77;47.23;;;;;;;-145.93;100.00;59239.47;4918154;29;20282;-83
2022/01/20 06:31:23;;;;;;;51.43;46.53;;;;;;;-145.93;100.00;59239.47;4916086;29;20019;-83
2022/01/20 06:33:48;;;;;;;66.60;51.33;;;;;;;-145.93;100.00;59239.47;4917637;29;20032;-82
2022/01/20 06:36:13;;;;;;;51.23;45.73;;;;;;;-145.93;100.00;59239.47;4902061;29;20272;-84
2022/01/20 06:38:39;;;;;;;55.20;46.80;;;;;;;-145.93;100.00;59239.47;4901976;29;20526;-84
2022/01/20 06:41:04;;;;;;;51.80;46.50;;;;;;;-145.93;100.00;59239.47;4899837;29;20460;-84
2022/01/20 06:43:30;;;;;;;56.97;48.97;;;;;;;-145.93;100.00;59239.47;4899129;29;20036;-82
2022/01/20 06:45:56;;;;;;;64.53;49.67;;;;;;;-145.93;100.00;59239.47;4922741;29;20042;-84
2022/01/20 06:48:22;;;;;;;52.60;47.13;;;;;;;-145.93;100.00;59239.47;4911892;28;20019;-86
2022/01/20 06:50:47;;;;;;;57.08;47.80;;;;;;;-145.93;100.00;59239.47;4928678;29;20088;-84
2022/01/20 06:53:22;;;;;;;50.13;45.13;;;;;;;-145.93;100.00;59239.47;4924013;29;20060;-85
2022/01/20 06:55:47;;;;;;;57.95;49.30;;;;;;;-145.93;100.00;59239.47;4927541;29;20024;-85
2022/01/20 06:58:13;;;;;;;55.50;48.33;;;;;;;-145.93;100.00;59239.47;4893372;29;20086;-84
2022/01/20 07:00:38;;;;;;;56.67;47.03;;;;;;;-145.93;100.00;59239.47;4892696;29;20055;-84
2022/01/20 07:03:03;;;;;;;57.90;47.87;;;;;;;-145.93;100.00;59239.47;4896763;29;21518;-84
2022/01/20 07:05:29;;;;;;;61.17;48.97;;;;;;;-145.93;100.00;59239.47;4916273;29;20039;-86
2022/01/20 07:07:54;;;;;;;54.30;48.37;;;;;;;-145.93;100.00;59239.47;4893908;29;20038;-84
2022/01/20 07:10:20;;;;;;;53.03;47.70;;;;;;;-145.93;100.00;59239.47;4897770;29;20028;-81
2022/01/20 07:12:47;;;;;;;52.55;47.03;;;;;;;-145.93;100.00;59239.47;4922401;29;20508;-83
2022/01/20 07:15:14;;;;;;;62.65;48.83;;;;;;;-145.93;100.00;59239.47;4900464;29;20408;-85
2022/01/20 07:17:39;;;;;;;56.92;48.17;;;;;;;-145.93;100.00;59239.47;4896244;29;20073;-84
2022/01/20 07:20:05;;;;;;;54.97;47.47;;;;;;;-145.93;100.00;59239.47;4901053;29;20033;-84
2022/01/20 07:22:31;;;;;;;73.50;50.17;;;;;;;-145.93;100.00;59239.47;4911335;29;20399;-83
2022/01/20 07:24:56;;;;;;;52.47;47.37;;;;;;;-145.93;100.00;59239.47;4919198;29;20032;-85
2022/01/20 07:27:22;;;;;;;51.67;46.33;;;;;;;-145.93;100.00;59239.47;4910144;29;20043;-85
2022/01/20 07:29:47;;;;;;;56.83;46.50;;;;;;;-145.93;100.00;59239.47;4913469;29;20036;-84
2022/01/20 07:32:12;;;;;;;54.07;45.63;;;;;;;-145.93;100.00;59239.47;4904131;29;20028;-85
2022/01/20 07:34:38;;;;;;;54.67;48.80;;;;;;;-145.93;100.00;59239.47;4921426;29;20031;-85
2022/01/20 07:37:06;;;;;;;52.63;47.00;;;;;;;-145.93;100.00;59239.47;4911050;29;20036;-85
2022/01/20 07:39:32;;;;;;;53.97;48.17;;;;;;;-145.93;100.00;59239.47;4903079;29;20031;-85
2022/01/20 07:41:57;;;;;;;52.97;47.22;;;;;;;-145.93;100.00;59239.47;4932371;29;20027;-83
2022/01/20 07:44:22;;;;;;;52.73;47.17;;;;;;;-145.93;100.00;59239.47;4923957;29;20096;-83
2022/01/20 07:46:48;;;;;;;51.83;46.50;;;;;;;-145.93;100.00;59239.47;4914607;29;20028;-85
2022/01/20 07:49:16;;;;;;;55.88;46.95;;;;;;;-145.93;100.00;59239.47;4896515;29;20024;-82
2022/01/20 07:51:41;;;;;;;52.83;47.42;;;;;;;-145.93;100.00;59239.47;4932262;29;20059;-83
2022/01/20 07:54:07;;;;;;;53.95;47.35;;;;;;;-145.93;100.00;59239.47;4920140;29;20052;-83
2022/01/20 07:56:32;;;;;;;54.70;47.27;;;;;;;-145.93;100.00;59239.47;4910490;29;20310;-84
2022/01/20 07:58:58;;;;;;;52.87;47.67;;;;;;;-145.93;100.00;59239.47;4914846;29;20055;-84
2022/01/20 08:01:26;;;;;;;53.90;47.27;;;;;;;-145.93;100.00;59239.47;4895962;29;20047;-83
2022/01/20 08:03:52;;;;;;;52.80;47.28;;;;;;;-145.93;100.00;59239.47;4897148;29;20035;-83
2022/01/20 08:06:22;;;;;;;57.53;48.45;;;;;;;-145.93;100.00;59239.47;4889319;29;20029;-84
2022/01/20 08:08:50;;;;;;;55.60;48.03;;;;;;;-145.93;100.00;59239.47;4891983;29;20028;-82
2022/01/20 08:11:19;;;;;;;56.17;48.55;;;;;;;-145.93;100.00;59239.47;4914625;29;20028;-92
2022/01/20 08:13:44;;;;;;;51.58;46.60;;;;;;;-145.93;100.00;59239.47;4904514;29;20043;-91
2022/01/20 08:16:10;;;;;;;59.53;48.53;;;;;;;-145.93;100.00;59239.47;4909535;29;20016;-93
2022/01/20 08:18:37;;;;;;;54.40;48.77;;;;;;;-145.93;100.00;59239.47;4926528;28;20047;-87
2022/01/20 08:21:03;;;;;;;55.83;48.30;;;;;;;-145.93;100.00;59239.47;4907867;29;20051;-83
2022/01/20 08:23:32;;;;;;;75.60;51.47;;;;;;;-145.93;100.00;59239.47;4902796;28;20012;-88
2022/01/20 08:25:57;;;;;;;62.38;50.65;;;;;;;-145.93;100.00;59239.47;4936948;23;20044;-88
2022/01/20 08:28:23;;;;;;;54.53;48.22;;;;;;;-145.93;100.00;59239.47;4893395;29;20122;-87
2022/01/20 08:30:51;;;;;;;54.00;48.17;;;;;;;-145.93;100.00;59239.47;4909826;29;20494;-88
2022/01/20 08:33:17;;;;;;;55.17;48.70;;;;;;;-145.93;100.00;59239.47;4895871;29;20024;-86
2022/01/20 08:35:43;;;;;;;86.03;53.60;;;;;;;-145.93;100.00;59239.47;4884824;29;20041;-79
2022/01/20 08:38:08;;;;;;;70.22;52.33;;;;;;;-145.93;100.00;59239.47;4895214;29;20356;-81
2022/01/20 08:40:35;;;;;;;63.90;50.90;;;;;;;-145.93;100.00;59239.47;4907454;29;20016;-80
2022/01/20 08:43:00;;;;;;;55.83;49.75;;;;;;;-145.93;100.00;59239.47;4916512;29;20201;-81
2022/01/20 08:45:47;;;;;;;62.00;50.87;;;;;;;-145.93;100.00;59239.47;4893012;29;20025;-80
2022/01/20 08:48:13;;;;;;;60.33;50.65;;;;;;;-145.93;100.00;59239.47;4905454;29;20300;-80
2022/01/20 08:50:40;;;;;;;60.28;49.92;;;;;;;-145.93;100.00;59239.47;4902685;29;20359;-82
2022/01/20 08:53:05;;;;;;;55.20;49.63;;;;;;;-145.93;100.00;59239.47;4912172;29;20028;-80
2022/01/20 08:55:31;;;;;;;70.43;53.00;;;;;;;-145.93;100.00;59239.47;4906506;29;20420;-79
2022/01/20 08:57:58;;;;;;;62.50;50.33;;;;;;;-145.93;100.00;59239.47;4887911;29;20031;-79
2022/01/20 09:00:26;;;;;;;76.18;51.50;;;;;;;-145.93;100.00;59239.47;4876052;29;20036;-79
2022/01/20 09:02:51;;;;;;;61.65;49.50;;;;;;;-145.93;100.00;59239.47;4908486;29;20025;-83
2022/01/20 09:05:17;;;;;;;56.73;50.03;;;;;;;-145.93;100.00;59239.47;4901514;29;20278;-83
2022/01/20 09:07:43;;;;;;;63.85;51.05;;;;;;;-145.93;100.00;59239.47;4869369;29;20017;-81
2022/01/20 09:10:10;;;;;;;53.00;47.50;;;;;;;-145.93;100.00;59239.47;4908738;29;20065;-84
2022/01/20 09:17:49;;;;;;;58.63;48.97;;;;;;;-145.93;100.00;59239.47;4902955;29;20104;-82
2022/01/20 09:20:14;;;;;;;54.17;48.33;;;;;;;-145.93;100.00;59239.47;4879122;29;20028;-81
2022/01/20 09:22:40;;;;;;;66.27;51.30;;;;;;;-145.93;100.00;59239.47;4890756;29;20033;-82
2022/01/20 09:25:06;;;;;;;65.63;50.87;;;;;;;-145.93;100.00;59239.47;4907006;29;20108;-82
2022/01/20 09:27:32;;;;;;;61.45;50.40;;;;;;;-145.93;100.00;59239.47;4897186;29;20024;-82
2022/01/20 09:29:58;;;;;;;54.95;48.97;;;;;;;-145.93;100.00;59239.47;4903887;29;20036;-81
2022/01/20 09:32:26;;;;;;;59.25;49.47;;;;;;;-145.93;100.00;59239.47;4910117;29;20087;-78
2022/01/20 09:34:52;;;;;;;64.22;49.38;;;;;;;-145.93;100.00;59239.47;4906127;29;20029;-76
2022/01/20 09:37:17;;;;;;;53.63;47.90;;;;;;;-145.93;100.00;59239.47;4910623;29;20736;-78
2022/01/20 09:39:42;;;;;;;53.70;48.17;;;;;;;-145.93;100.00;59239.47;4902963;29;20021;-78
2022/01/20 09:42:08;;;;;;;62.13;53.60;;;;;;;-145.93;100.00;59239.47;4871169;29;20024;-80
2022/01/20 09:44:34;;;;;;;55.75;49.70;;;;;;;-145.93;100.00;59239.47;4888366;29;20028;-78
2022/01/20 09:47:00;;;;;;;54.20;48.37;;;;;;;-145.93;100.00;59239.47;4888834;29;20133;-78
2022/01/20 09:49:25;;;;;;;54.20;48.53;;;;;;;-145.93;100.00;59239.47;4888707;29;20046;-76
2022/01/20 09:51:50;;;;;;;52.80;47.47;;;;;;;-145.93;100.00;59239.47;4885320;29;20039;-78
2022/01/20 09:54:17;;;;;;;52.97;47.57;;;;;;;-145.93;100.00;59239.47;4908851;29;20037;-80
2022/01/20 09:56:44;;;;;;;;;;;;;;;-145.93;100.00;59239.47;4882897;29;20076;-79
2022/01/20 09:59:11;;;;;;;54.70;48.78;;;;;;;-145.93;100.00;59239.47;4903034;29;19970;-79
2022/01/20 10:01:50;;;;;;;56.38;49.45;;;;;;;-145.93;100.00;59239.47;4901518;29;20052;-77
2022/01/20 10:04:23;;;;;;;60.13;49.28;;;;;;;-145.93;100.00;59239.47;4906102;29;20096;-79
2022/01/20 10:06:56;;;;;;;60.75;49.90;;;;;;;-145.93;100.00;59239.47;4893237;29;20036;-78
2022/01/20 10:09:38;;;;;;;62.58;50.28;;;;;;;-145.93;100.00;59239.47;4904197;29;20112;-81
2022/01/20 10:12:06;;;;;;;59.53;50.45;;;;;;;-145.93;100.00;59239.47;4900601;29;20101;-78
2022/01/20 10:14:58;;;;;;;71.97;51.40;;;;;;;-145.93;100.00;59239.47;4906581;29;20021;-79
2022/01/20 10:17:27;;;;;;;54.85;48.95;;;;;;;-145.93;100.00;59239.47;4872724;29;20048;-77
2022/01/20 10:19:55;;;;;;;63.05;50.38;;;;;;;-145.93;100.00;59239.47;4874179;29;20519;-78
2022/01/20 10:22:24;;;;;;;60.80;48.70;;;;;;;-145.93;100.00;59239.47;4904203;29;20032;-76
2022/01/20 10:25:19;;;;;;;57.50;49.15;;;;;;;-145.93;100.00;59239.47;4895907;29;20096;-79
2022/01/20 10:27:50;;;;;;;54.20;48.13;;;;;;;-145.93;100.00;59239.47;4887298;29;20040;-79
2022/01/20 10:30:16;;;;;;;60.20;50.08;;;;;;;-145.93;100.00;59239.47;4900822;29;20042;-77
2022/01/20 10:32:46;;;;;;;65.03;50.65;;;;;;;-145.93;100.00;59239.47;4906492;29;20036;-78
2022/01/20 10:35:13;;;;;;;63.60;50.13;;;;;;;-145.93;100.00;59239.47;4904904;29;20036;-78
2022/01/20 10:37:42;;;;;;;94.68;55.50;;;;;;;-145.93;100.00;59239.47;4929597;23;20020;-84
2022/01/20 10:40:11;;;;;;;64.50;49.35;;;;;;;-145.93;100.00;59239.47;4911250;29;20047;-83
2022/01/20 10:42:40;;;;;;;72.22;51.30;;;;;;;-145.93;100.00;59239.47;4913485;29;20055;-83
2022/01/20 10:45:07;;;;;;;53.47;47.88;;;;;;;-145.93;100.00;59239.47;4889466;29;20039;-83
2022/01/20 10:47:36;;;;;;;51.88;46.75;;;;;;;-145.93;100.00;59239.47;4895942;29;20058;-81
2022/01/20 10:50:16;;;;;;;57.00;48.78;;;;;;;-145.93;100.00;59239.47;4899755;29;20060;-83
2022/01/20 10:52:49;;;;;;;67.32;50.38;;;;;;;-145.93;100.00;59239.47;4886760;29;20024;-82
2022/01/20 10:55:20;;;;;;;52.15;46.90;;;;;;;-145.93;100.00;59239.47;4897500;29;20043;-84
2022/01/20 10:57:45;;;;;;;52.65;47.28;;;;;;;-145.93;100.00;59239.47;4906723;29;20020;-82
2022/01/20 11:00:12;;;;;;;52.63;47.27;;;;;;;-145.93;100.00;59239.47;4898019;29;20070;-82
2022/01/20 11:02:38;;;;;;;60.65;49.97;;;;;;;-145.93;100.00;59239.47;4907829;29;20189;-80
2022/01/20 11:05:04;;;;;;;56.97;47.03;;;;;;;-145.93;100.00;59239.47;4894954;29;20726;-83
2022/01/20 11:07:30;;;;;;;53.28;47.47;;;;;;;-145.93;100.00;59239.47;4899300;29;20024;-80
2022/01/20 11:10:01;;;;;;;57.63;49.20;;;;;;;-145.93;100.00;59239.47;4895986;29;20103;-83
2022/01/20 11:12:34;;;;;;;53.17;47.55;;;;;;;-145.93;100.00;59239.47;4900932;29;20028;-84
2022/01/20 11:15:06;;;;;;;53.53;47.13;;;;;;;-145.93;100.00;59239.47;4900758;29;20404;-82
2022/01/20 11:17:43;;;;;;;54.47;47.97;;;;;;;-145.93;100.00;59239.47;4899984;29;20028;-82
2022/01/20 11:20:15;;;;;;;54.05;48.33;;;;;;;-145.93;100.00;59239.47;4897809;29;20028;-84
2022/01/20 11:22:55;;;;;;;62.67;50.63;;;;;;;-145.93;100.00;59239.47;4899037;29;20040;-84
2022/01/20 11:25:22;;;;;;;56.40;49.33;;;;;;;-145.93;100.00;59239.47;4911302;29;20028;-84
2022/01/20 11:27:51;;;;;;;56.47;48.45;;;;;;;-145.93;100.00;59239.47;4895516;29;20032;-81
2022/01/20 11:30:26;;;;;;;63.47;49.88;;;;;;;-145.93;100.00;59239.47;4909167;29;20115;-83
2022/01/20 11:33:00;;;;;;;57.35;48.80;;;;;;;-145.93;100.00;59239.47;4905415;29;20024;-82
2022/01/20 11:35:54;;;;;;;61.97;49.90;;;;;;;-145.93;100.00;59239.47;4907060;29;20028;-81
2022/01/20 11:38:40;;;;;;;69.53;51.88;;;;;;;-145.93;100.00;59239.47;4912472;29;20080;-81
2022/01/20 11:41:06;;;;;;;59.78;48.55;;;;;;;-145.93;100.00;59239.47;4910835;29;20032;-81
2022/01/20 11:43:39;;;;;;;53.97;48.47;;;;;;;-145.93;100.00;59239.47;4895411;29;20051;-79
2022/01/20 11:46:17;;;;;;;54.10;48.38;;;;;;;-145.93;100.00;59239.47;4894544;29;20044;-81
2022/01/20 11:49:10;;;;;;;59.25;49.58;;;;;;;-145.93;100.00;59239.47;4910659;29;20020;-82
2022/01/20 11:51:51;;;;;;;53.10;47.83;;;;;;;-145.93;100.00;59239.47;4895149;29;20040;-79
2022/01/20 11:54:29;;;;;;;53.50;48.00;;;;;;;-145.93;100.00;59239.47;4914093;29;20028;-82
2022/01/20 11:57:06;;;;;;;54.33;48.58;;;;;;;-145.93;100.00;59239.47;4898352;29;20134;-80
2022/01/20 11:59:36;;;;;;;55.20;49.23;;;;;;;-145.93;100.00;59239.47;4926519;29;20039;-81
2022/01/20 12:02:01;;;;;;;56.08;49.05;;;;;;;-145.93;100.00;59239.47;4909743;29;20870;-79
2022/01/20 12:04:38;;;;;;;60.40;49.87;;;;;;;-145.93;100.00;59239.47;4898262;29;20024;-82
2022/01/20 12:07:10;;;;;;;74.70;52.88;;;;;;;-145.93;100.00;59239.47;4906632;29;20056;-80